Time;durP1;ratioP1;P1;durP2;ratioP2;P2;SDS_P1;SDS_P2;PMS_P1;PMS_P2;Temp;Humidity;BMP_temperature;BMP_pressure;BME280_temperature;BME280_humidity;BME280_pressure;Samples;Min_cycle;Max_cycle;Signal;HPM_P1;HPM_P2
2022/10/23 00:01:40;;;;;;;12.70;4.97;;;;;;;13.15;100.00;101390.16;2612163;36;20037;-54
2022/10/23 00:04:10;;;;;;;12.10;5.03;;;;;;;13.13;100.00;101386.72;2613955;36;20045;-57
2022/10/23 00:06:39;;;;;;;8.32;4.28;;;;;;;13.19;100.00;101388.88;2612318;36;20041;-56
2022/10/23 00:09:12;;;;;;;9.68;4.50;;;;;;;13.21;100.00;101378.78;2611127;36;20779;-54
2022/10/23 00:11:43;;;;;;;7.32;4.40;;;;;;;13.22;100.00;101366.97;2614310;36;20030;-52
2022/10/23 00:14:12;;;;;;;8.65;4.45;;;;;;;13.16;100.00;101370.22;2614095;36;20022;-57
2022/10/23 00:16:40;;;;;;;7.00;4.45;;;;;;;13.15;100.00;101371.22;2612618;31;20038;-53
2022/10/23 00:19:08;;;;;;;10.02;5.57;;;;;;;13.05;100.00;101376.59;2613168;36;20023;-56
2022/10/23 00:21:38;;;;;;;12.30;5.17;;;;;;;13.02;100.00;101376.88;2613235;31;20436;-56
2022/10/23 00:24:07;;;;;;;;;;;;;;;12.97;100.00;101374.63;2612909;31;20039;-56
2022/10/23 00:26:39;;;;;;;;;;;;;;;12.88;100.00;101363.78;2613254;36;19967;-54
2022/10/23 00:29:08;;;;;;;13.05;4.50;;;;;;;12.87;100.00;101360.22;2613932;31;20440;-53
2022/10/23 00:31:36;;;;;;;9.00;4.95;;;;;;;12.84;100.00;101363.22;2612640;36;20061;-57
2022/10/23 00:34:07;;;;;;;10.50;4.03;;;;;;;12.82;100.00;101367.88;2612817;36;20027;-56
2022/10/23 00:36:35;;;;;;;7.22;4.20;;;;;;;12.74;100.00;101367.72;2612634;36;20038;-57
2022/10/23 00:39:04;;;;;;;10.82;4.78;;;;;;;12.75;100.00;101375.69;2612837;36;20042;-57
2022/10/23 00:41:33;;;;;;;10.67;5.10;;;;;;;12.79;100.00;101370.84;2612181;36;20031;-54
2022/10/23 00:44:09;;;;;;;7.97;5.03;;;;;;;12.74;100.00;101376.69;2612658;36;20427;-51
2022/10/23 00:46:39;;;;;;;10.90;4.40;;;;;;;12.74;100.00;101381.25;2613560;36;20591;-53
2022/10/23 00:49:09;;;;;;;10.02;4.47;;;;;;;12.80;100.00;101376.13;2614735;36;20039;-51
2022/10/23 00:51:41;;;;;;;11.18;6.43;;;;;;;12.75;100.00;101364.00;2612832;36;20065;-54
2022/10/23 00:54:11;;;;;;;7.00;4.60;;;;;;;12.73;100.00;101356.06;2612957;36;20057;-55
2022/10/23 00:56:40;;;;;;;;;;;;;;;12.79;100.00;101365.44;2613267;36;20042;-52
2022/10/23 00:59:12;;;;;;;9.90;4.28;;;;;;;12.76;100.00;101363.91;2615183;36;19973;-56
2022/10/23 01:01:41;;;;;;;10.50;4.35;;;;;;;12.72;100.00;101372.41;2612423;36;20027;-56
2022/10/23 01:04:10;;;;;;;7.78;4.63;;;;;;;12.73;100.00;101366.00;2612588;36;20400;-56
2022/10/23 01:06:44;;;;;;;9.18;4.72;;;;;;;12.73;100.00;101350.66;2612616;36;20392;-54
2022/10/23 01:09:20;;;;;;;10.57;5.15;;;;;;;12.73;100.00;101355.22;2612737;36;20129;-57
2022/10/23 01:11:54;;;;;;;8.63;4.90;;;;;;;12.76;100.00;101344.13;2613129;36;20042;-55
2022/10/23 01:14:33;;;;;;;8.32;4.70;;;;;;;12.75;100.00;101342.41;2614604;36;20385;-55
2022/10/23 01:17:07;;;;;;;8.38;4.65;;;;;;;12.61;100.00;101340.97;2617109;31;20024;-55
2022/10/23 01:19:48;;;;;;;12.73;4.55;;;;;;;12.75;100.00;101342.41;2615870;36;20038;-55
2022/10/23 01:22:36;;;;;;;9.73;4.45;;;;;;;12.78;100.00;101336.75;2616478;31;20026;-55
2022/10/23 01:25:17;;;;;;;10.55;4.90;;;;;;;12.78;100.00;101342.16;2613766;36;20022;-53
2022/10/23 01:27:54;;;;;;;9.40;4.53;;;;;;;12.73;100.00;101344.41;2616129;36;20555;-53
2022/10/23 01:30:22;;;;;;;9.30;4.38;;;;;;;12.71;100.00;101336.44;2613550;31;20038;-52
2022/10/23 01:32:54;;;;;;;7.90;4.70;;;;;;;12.72;100.00;101338.16;2610132;36;20890;-52
2022/10/23 01:35:36;;;;;;;8.32;4.90;;;;;;;12.65;100.00;101334.31;2608679;36;20303;-57
2022/10/23 01:38:09;;;;;;;8.45;4.65;;;;;;;12.64;100.00;101323.63;2612222;36;20547;-55
2022/10/23 01:40:45;;;;;;;8.52;4.35;;;;;;;12.60;100.00;101323.91;2612224;36;20045;-56
2022/10/23 01:43:21;;;;;;;9.88;5.20;;;;;;;12.56;100.00;101327.88;2612045;36;20435;-54
2022/10/23 01:45:53;;;;;;;9.30;4.80;;;;;;;12.54;100.00;101332.53;2606370;36;20701;-53
2022/10/23 01:48:27;;;;;;;8.30;4.40;;;;;;;12.59;100.00;101330.31;2614589;36;20050;-55
2022/10/23 01:50:58;;;;;;;11.50;3.90;;;;;;;12.64;100.00;101327.19;2614430;31;20038;-55
2022/10/23 01:53:29;;;;;;;11.63;4.85;;;;;;;12.61;100.00;101322.06;2614247;36;20070;-52
2022/10/23 01:55:59;;;;;;;7.15;4.20;;;;;;;12.57;100.00;101320.63;2614638;36;20023;-55
2022/10/23 01:58:33;;;;;;;5.70;4.13;;;;;;;12.57;100.00;101315.22;2616219;36;20561;-54
2022/10/23 02:01:04;;;;;;;7.13;4.10;;;;;;;12.58;100.00;101315.09;2613172;36;20030;-56
2022/10/23 02:03:35;;;;;;;10.02;4.43;;;;;;;12.52;100.00;101315.63;2615656;36;20041;-56
2022/10/23 02:06:04;;;;;;;8.52;4.00;;;;;;;12.49;100.00;101313.22;2616412;31;20023;-55
2022/10/23 02:08:33;;;;;;;7.35;4.10;;;;;;;12.52;100.00;101310.25;2613261;54;20034;-56
2022/10/23 02:11:07;;;;;;;12.00;4.07;;;;;;;12.55;100.00;101301.88;2615672;54;20637;-53
2022/10/23 02:13:45;;;;;;;9.45;4.43;;;;;;;12.46;100.00;101294.59;2615296;54;20097;-55
2022/10/23 02:16:24;;;;;;;9.02;3.78;;;;;;;12.49;100.00;101291.63;2615188;36;20035;-52
2022/10/23 02:18:57;;;;;;;7.85;3.83;;;;;;;12.51;100.00;101292.31;2616208;36;20034;-54
2022/10/23 02:21:34;;;;;;;8.70;3.88;;;;;;;12.52;100.00;101298.59;2613307;36;20046;-57
2022/10/23 02:24:06;;;;;;;11.65;4.28;;;;;;;12.44;100.00;101286.63;2611657;36;20042;-51
2022/10/23 02:26:40;;;;;;;8.77;4.38;;;;;;;12.46;100.00;101283.81;2615649;36;20065;-53
2022/10/23 02:29:16;;;;;;;11.30;4.30;;;;;;;12.46;100.00;101283.81;2616543;36;20038;-58
2022/10/23 02:31:44;;;;;;;7.68;3.92;;;;;;;12.48;100.00;101276.41;2615924;36;20033;-54
2022/10/23 02:34:12;;;;;;;9.07;4.10;;;;;;;12.37;100.00;101274.69;2616147;36;20023;-55
2022/10/23 02:36:41;;;;;;;7.63;4.00;;;;;;;12.32;100.00;101266.13;2616079;36;20038;-53
2022/10/23 02:39:09;;;;;;;7.00;3.40;;;;;;;12.35;100.00;101265.00;2615897;36;20283;-52
2022/10/23 02:41:45;;;;;;;9.25;4.20;;;;;;;12.30;100.00;101264.56;2615775;36;20551;-55
2022/10/23 02:44:30;;;;;;;8.50;3.55;;;;;;;12.31;100.00;101266.25;2616840;36;20038;-54
2022/10/23 02:47:15;;;;;;;8.25;3.63;;;;;;;12.34;100.00;101263.31;2615166;36;20061;-53
2022/10/23 02:49:50;;;;;;;8.57;4.28;;;;;;;12.39;100.00;101266.44;2614215;31;20524;-54
2022/10/23 02:52:25;;;;;;;8.32;3.50;;;;;;;12.40;100.00;101262.75;2615934;36;20035;-55
2022/10/23 02:55:10;;;;;;;7.95;4.10;;;;;;;12.41;100.00;101259.03;2614601;36;20787;-55
2022/10/23 02:57:46;;;;;;;11.70;4.15;;;;;;;12.41;100.00;101250.94;2616744;36;20026;-55
2022/10/23 03:00:19;;;;;;;12.10;4.50;;;;;;;12.48;100.00;101252.09;2615785;36;20054;-53
2022/10/23 03:02:54;;;;;;;12.73;4.18;;;;;;;12.59;100.00;101252.00;2616414;36;20099;-57
2022/10/23 03:05:26;;;;;;;8.10;3.88;;;;;;;12.60;100.00;101259.13;2615061;36;20034;-55
2022/10/23 03:07:54;;;;;;;9.05;4.10;;;;;;;12.56;100.00;101251.44;2613829;36;20034;-54
2022/10/23 03:10:23;;;;;;;7.33;3.70;;;;;;;12.60;100.00;101242.91;2615786;36;20419;-54
2022/10/23 03:12:51;;;;;;;7.43;3.50;;;;;;;12.64;100.00;101234.53;2615735;36;20030;-56
2022/10/23 03:15:22;;;;;;;11.18;4.07;;;;;;;12.57;100.00;101240.50;2615688;36;20042;-53
2022/10/23 03:17:50;;;;;;;7.43;4.25;;;;;;;12.52;100.00;101241.91;2616256;36;20029;-53
2022/10/23 03:20:19;;;;;;;8.55;4.25;;;;;;;12.41;100.00;101243.72;2616575;31;20423;-56
2022/10/23 03:22:47;;;;;;;9.57;3.35;;;;;;;12.35;100.00;101238.88;2615268;36;20023;-54
2022/10/23 03:25:16;;;;;;;7.68;3.80;;;;;;;12.40;100.00;101243.88;2616437;36;20512;-52
2022/10/23 03:27:44;;;;;;;9.07;4.20;;;;;;;12.41;100.00;101237.44;2615535;36;20041;-54
2022/10/23 03:30:13;;;;;;;8.00;3.63;;;;;;;12.36;100.00;101237.03;2616018;31;20558;-55
2022/10/23 03:32:44;;;;;;;9.38;3.90;;;;;;;12.35;100.00;101232.63;2615635;31;20306;-55
2022/10/23 03:35:12;;;;;;;10.13;3.92;;;;;;;12.31;100.00;101226.66;2616252;36;20026;-56
2022/10/23 03:37:41;;;;;;;10.77;4.05;;;;;;;12.34;100.00;101230.94;2614658;31;20034;-55
2022/10/23 03:40:11;;;;;;;8.63;3.67;;;;;;;12.26;100.00;101234.28;2616442;36;20454;-52
2022/10/23 03:42:39;;;;;;;7.47;3.20;;;;;;;12.37;100.00;101236.03;2615554;36;20027;-54
2022/10/23 03:45:08;;;;;;;6.88;3.45;;;;;;;12.29;100.00;101222.38;2616532;36;20396;-52
2022/10/23 03:47:39;;;;;;;8.93;3.88;;;;;;;12.25;100.00;101217.25;2603419;36;20026;-54
2022/10/23 03:50:12;;;;;;;7.15;3.67;;;;;;;12.27;100.00;101214.41;2615548;36;20065;-54
2022/10/23 03:52:41;;;;;;;7.00;3.42;;;;;;;12.17;100.00;101219.78;2616061;36;20030;-54
2022/10/23 03:55:10;;;;;;;6.38;3.53;;;;;;;12.20;100.00;101211.41;2615074;36;20023;-53
2022/10/23 03:57:39;;;;;;;7.22;3.55;;;;;;;12.20;100.00;101219.50;2615465;36;20030;-53
2022/10/23 04:00:09;;;;;;;9.60;3.72;;;;;;;12.19;100.00;101212.41;2614981;36;20488;-56
2022/10/23 04:02:37;;;;;;;8.07;3.90;;;;;;;12.14;100.00;101214.66;2614523;36;20026;-54
2022/10/23 04:05:07;;;;;;;7.85;4.25;;;;;;;12.22;100.00;101212.13;2615362;36;20029;-52
2022/10/23 04:07:38;;;;;;;15.50;5.22;;;;;;;12.24;100.00;101203.91;2613955;36;20439;-57
2022/10/23 04:10:07;;;;;;;7.57;4.07;;;;;;;12.18;100.00;101202.59;2615450;31;20023;-55
2022/10/23 04:12:35;;;;;;;11.02;3.90;;;;;;;12.26;100.00;101189.28;2615419;36;20030;-55
2022/10/23 04:15:04;;;;;;;9.73;4.30;;;;;;;12.31;100.00;101188.00;2615516;36;20551;-55
2022/10/23 04:17:32;;;;;;;11.30;4.20;;;;;;;12.32;100.00;101189.72;2614522;31;20035;-55
2022/10/23 04:20:00;;;;;;;10.90;3.53;;;;;;;12.39;100.00;101182.75;2614256;36;20034;-54
2022/10/23 04:22:29;;;;;;;7.30;4.55;;;;;;;12.39;100.00;101185.47;2613363;31;20042;-52
2022/10/23 04:25:00;;;;;;;7.75;3.70;;;;;;;12.49;100.00;101180.94;2615515;36;20034;-52
2022/10/23 04:27:28;;;;;;;10.93;4.00;;;;;;;12.61;100.00;101174.38;2616276;31;20575;-54
2022/10/23 04:29:56;;;;;;;9.48;4.53;;;;;;;12.64;100.00;101172.41;2615053;36;20038;-52
2022/10/23 04:32:25;;;;;;;12.45;4.47;;;;;;;12.68;100.00;101171.16;2614986;36;20415;-55
2022/10/23 04:34:53;;;;;;;12.70;4.30;;;;;;;12.61;100.00;101163.59;2616315;31;20623;-55
2022/10/23 04:37:21;;;;;;;11.00;4.72;;;;;;;12.51;100.00;101162.72;2613756;36;20085;-56
2022/10/23 04:39:49;;;;;;;8.10;4.72;;;;;;;12.56;100.00;101155.06;2616626;36;20038;-55
2022/10/23 04:42:21;;;;;;;12.70;4.85;;;;;;;12.56;100.00;101152.38;2614999;36;20026;-54
2022/10/23 04:44:49;;;;;;;8.95;5.00;;;;;;;12.70;100.00;101145.66;2615366;36;20026;-54
2022/10/23 04:47:17;;;;;;;10.27;5.43;;;;;;;12.73;100.00;101145.38;2615174;36;20045;-54
2022/10/23 04:49:46;;;;;;;9.50;4.50;;;;;;;12.68;100.00;101146.84;2613205;36;20061;-55
2022/10/23 04:52:14;;;;;;;10.23;4.80;;;;;;;12.66;100.00;101146.97;2614258;36;20034;-52
2022/10/23 04:54:42;;;;;;;10.02;5.35;;;;;;;12.80;100.00;101145.69;2614548;36;20152;-54
2022/10/23 04:57:10;;;;;;;10.05;4.53;;;;;;;12.90;100.00;101138.41;2615897;31;20562;-56
2022/10/23 04:59:41;;;;;;;13.88;5.32;;;;;;;12.77;100.00;101132.47;2615309;36;20158;-54
2022/10/23 05:02:10;;;;;;;8.00;4.43;;;;;;;12.96;100.00;101123.47;2615195;36;20030;-53
2022/10/23 05:04:38;;;;;;;13.50;5.73;;;;;;;12.92;100.00;101122.91;2615963;36;20416;-54
2022/10/23 05:07:06;;;;;;;10.40;5.07;;;;;;;13.03;100.00;101118.34;2614042;36;20034;-57
2022/10/23 05:09:35;;;;;;;7.03;4.40;;;;;;;13.05;100.00;101110.94;2615732;36;20022;-54
2022/10/23 05:12:03;;;;;;;9.93;4.72;;;;;;;13.05;100.00;101117.19;2615588;36;20034;-53
2022/10/23 05:14:31;;;;;;;8.68;4.25;;;;;;;13.14;100.00;101120.88;2615218;36;20073;-55
2022/10/23 05:17:08;;;;;;;10.45;5.30;;;;;;;13.19;100.00;101107.78;2616098;31;20055;-52
2022/10/23 05:19:42;;;;;;;8.80;4.85;;;;;;;13.29;100.00;101107.72;2615071;36;20048;-56
2022/10/23 05:22:12;;;;;;;12.77;5.07;;;;;;;13.27;100.00;101125.97;2615396;36;20038;-55
2022/10/23 05:24:40;;;;;;;8.00;4.03;;;;;;;13.27;100.00;101120.56;2616346;36;20022;-56
2022/10/23 05:27:09;;;;;;;9.15;4.47;;;;;;;13.31;100.00;101128.22;2616492;36;20419;-56
2022/10/23 05:29:37;;;;;;;14.40;4.85;;;;;;;13.27;100.00;101125.97;2614785;36;20046;-53
2022/10/23 05:32:12;;;;;;;22.90;4.55;;;;;;;13.06;100.00;101124.31;2614644;36;20023;-57
2022/10/23 05:34:41;;;;;;;8.73;4.10;;;;;;;13.21;100.00;101123.84;2615526;31;20034;-55
2022/10/23 05:37:13;;;;;;;7.97;4.85;;;;;;;13.18;100.00;101133.09;2615782;36;20431;-54
2022/10/23 05:39:41;;;;;;;10.57;4.40;;;;;;;13.12;100.00;101125.59;2616811;31;20462;-52
2022/10/23 05:42:09;;;;;;;6.05;4.35;;;;;;;13.07;100.00;101119.75;2614909;31;20022;-53
2022/10/23 05:44:38;;;;;;;8.00;4.00;;;;;;;13.27;100.00;101105.19;2615319;36;20559;-53
2022/10/23 05:47:09;;;;;;;5.75;4.05;;;;;;;13.20;100.00;101106.75;2615271;36;20046;-53
2022/10/23 05:49:38;;;;;;;7.78;4.72;;;;;;;13.07;100.00;101106.25;2613696;36;20069;-56
2022/10/23 05:52:06;;;;;;;10.07;4.28;;;;;;;13.12;100.00;101112.06;2613718;36;20031;-54
2022/10/23 05:54:34;;;;;;;9.27;4.10;;;;;;;13.00;100.00;101097.00;2615056;36;20029;-56
2022/10/23 05:57:03;;;;;;;6.15;4.50;;;;;;;13.09;100.00;101088.03;2615316;36;20034;-51
2022/10/23 05:59:31;;;;;;;7.38;4.50;;;;;;;13.18;100.00;101084.44;2615387;36;20034;-56
2022/10/23 06:01:59;;;;;;;9.23;4.00;;;;;;;13.19;100.00;101086.16;2614630;36;20034;-56
2022/10/23 06:04:30;;;;;;;10.85;4.32;;;;;;;13.19;100.00;101093.41;2614733;36;20802;-55
2022/10/23 06:06:58;;;;;;;5.43;4.15;;;;;;;13.29;100.00;101088.81;2614715;36;20023;-56
2022/10/23 06:09:27;;;;;;;8.57;4.85;;;;;;;13.27;100.00;101091.66;2611246;36;20591;-53
2022/10/23 06:11:55;;;;;;;5.90;4.22;;;;;;;13.30;100.00;101096.78;2612872;36;20428;-55
2022/10/23 06:14:23;;;;;;;8.73;4.45;;;;;;;13.44;100.00;101091.91;2612341;36;20061;-53
2022/10/23 06:16:52;;;;;;;10.93;5.13;;;;;;;13.54;100.00;101100.81;2612102;36;20618;-55
2022/10/23 06:19:20;;;;;;;8.88;4.72;;;;;;;13.47;100.00;101094.31;2612364;36;20393;-54
2022/10/23 06:21:51;;;;;;;8.80;4.57;;;;;;;13.38;100.00;101096.06;2612086;36;20592;-59
2022/10/23 06:24:19;;;;;;;8.02;4.93;;;;;;;13.43;100.00;101098.34;2612076;31;20058;-55
2022/10/23 06:26:47;;;;;;;15.00;5.03;;;;;;;13.43;100.00;101092.94;2612374;36;20022;-53
2022/10/23 06:29:16;;;;;;;7.55;5.07;;;;;;;13.55;100.00;101086.31;2612797;36;20073;-51
2022/10/23 06:31:44;;;;;;;9.10;4.93;;;;;;;13.61;100.00;101079.47;2614509;36;20038;-52
2022/10/23 06:34:13;;;;;;;10.77;5.40;;;;;;;13.53;100.00;101082.91;2614980;36;20149;-53
2022/10/23 06:36:42;;;;;;;7.68;4.45;;;;;;;13.69;100.00;101073.28;2615242;36;20034;-52
2022/10/23 06:39:13;;;;;;;7.63;5.15;;;;;;;13.72;100.00;101083.78;2614682;36;20570;-54
2022/10/23 06:41:43;;;;;;;9.63;5.35;;;;;;;13.73;100.00;101071.97;2614827;36;20467;-57
2022/10/23 06:44:11;;;;;;;9.00;5.07;;;;;;;13.77;100.00;101068.81;2614987;31;20057;-54
2022/10/23 06:46:40;;;;;;;8.52;4.57;;;;;;;13.89;100.00;101055.94;2616588;36;20040;-57
2022/10/23 06:49:08;;;;;;;8.17;4.57;;;;;;;13.90;100.00;101052.22;2616600;36;20378;-55
2022/10/23 06:51:36;;;;;;;10.68;4.30;;;;;;;13.87;100.00;101057.94;2616132;36;20034;-55
2022/10/23 06:54:05;;;;;;;6.95;4.82;;;;;;;13.87;100.00;101057.06;2615103;36;20030;-56
2022/10/23 06:56:35;;;;;;;9.17;4.83;;;;;;;13.82;100.00;101065.66;2615073;36;20560;-54
2022/10/23 06:59:10;;;;;;;12.55;4.80;;;;;;;14.04;100.00;101053.53;2617733;36;20299;-57
2022/10/23 07:01:38;;;;;;;9.73;4.60;;;;;;;14.13;100.00;101057.16;2615356;36;20038;-54
2022/10/23 07:04:07;;;;;;;9.83;5.67;;;;;;;14.08;100.00;101054.09;2615988;36;20031;-56
2022/10/23 07:06:35;;;;;;;9.40;4.43;;;;;;;14.08;100.00;101051.38;2615884;36;20287;-57
2022/10/23 07:09:03;;;;;;;16.13;5.32;;;;;;;14.26;100.00;101052.22;2616005;36;20057;-55
2022/10/23 07:11:32;;;;;;;10.88;4.72;;;;;;;14.29;100.00;101051.91;2616403;36;20404;-55
2022/10/23 07:14:03;;;;;;;8.00;4.63;;;;;;;14.37;100.00;101043.88;2616575;36;20038;-56
2022/10/23 07:16:31;;;;;;;10.07;5.00;;;;;;;14.27;100.00;101043.09;2615597;36;20030;-56
2022/10/23 07:19:01;;;;;;;10.75;4.63;;;;;;;14.31;100.00;101035.50;2615063;36;20041;-54
2022/10/23 07:21:31;;;;;;;9.75;4.88;;;;;;;14.45;100.00;101031.41;2615741;31;20035;-55
2022/10/23 07:24:00;;;;;;;7.85;4.55;;;;;;;14.46;100.00;101038.53;2616918;36;20652;-56
2022/10/23 07:26:28;;;;;;;9.07;4.32;;;;;;;14.45;100.00;101040.38;2616122;36;20035;-54
2022/10/23 07:28:57;;;;;;;14.43;5.07;;;;;;;14.63;100.00;101040.34;2617078;36;20035;-52
2022/10/23 07:31:28;;;;;;;11.10;4.40;;;;;;;14.55;100.00;101030.28;2614808;36;20038;-53
2022/10/23 07:33:56;;;;;;;10.75;5.55;;;;;;;14.60;100.00;101040.63;2616226;36;20548;-56
2022/10/23 07:36:25;;;;;;;7.40;4.43;;;;;;;14.74;100.00;101041.09;2616179;31;20034;-56
2022/10/23 07:38:53;;;;;;;8.95;4.55;;;;;;;14.87;100.00;101045.09;2616953;36;20661;-55
2022/10/23 07:41:22;;;;;;;10.27;4.30;;;;;;;14.87;100.00;101044.28;2615657;36;20045;-55
2022/10/23 07:43:50;;;;;;;9.55;4.43;;;;;;;15.04;100.00;101035.19;2616875;36;20029;-52
2022/10/23 07:46:19;;;;;;;8.47;4.57;;;;;;;14.96;100.00;101037.88;2615242;36;20582;-54
2022/10/23 07:48:50;;;;;;;12.88;5.63;;;;;;;14.95;100.00;101030.75;2615081;36;20026;-56
2022/10/23 07:51:18;;;;;;;7.43;4.32;;;;;;;15.05;100.00;101031.47;2615577;36;20041;-55
2022/10/23 07:53:47;;;;;;;9.68;4.65;;;;;;;15.22;100.00;101039.69;2616434;36;20068;-57
2022/10/23 07:56:18;;;;;;;8.48;4.60;;;;;;;15.20;100.00;101034.44;2615993;36;20034;-55
2022/10/23 07:58:46;;;;;;;6.47;4.20;;;;;;;15.32;100.00;101026.84;2615305;36;20107;-54
2022/10/23 08:01:19;;;;;;;7.13;4.30;;;;;;;15.50;100.00;101029.50;2614274;36;20558;-57
2022/10/23 08:03:50;;;;;;;8.18;4.70;;;;;;;15.48;100.00;101019.81;2615760;36;20535;-53
2022/10/23 08:06:18;;;;;;;9.52;4.85;;;;;;;15.54;100.00;101019.16;2616111;36;20045;-57
2022/10/23 08:08:47;;;;;;;8.60;4.33;;;;;;;15.47;100.00;101020.81;2614571;36;20610;-55
2022/10/23 08:11:17;;;;;;;8.20;5.00;;;;;;;15.55;100.00;101018.97;2616379;36;20030;-57
2022/10/23 08:13:45;;;;;;;7.10;4.15;;;;;;;15.77;100.00;101017.50;2616610;36;20045;-54
2022/10/23 08:16:13;;;;;;;11.50;4.40;;;;;;;15.59;100.00;101011.34;2615113;36;20031;-56
2022/10/23 08:18:44;;;;;;;7.72;5.00;;;;;;;15.66;100.00;101008.84;2615397;36;20034;-54
2022/10/23 08:21:15;;;;;;;6.78;3.78;;;;;;;15.69;100.00;101006.63;2615543;36;20537;-56
2022/10/23 08:23:43;;;;;;;8.50;4.35;;;;;;;15.67;100.00;101010.53;2615406;36;20550;-57
2022/10/23 08:26:12;;;;;;;11.50;4.10;;;;;;;15.74;100.00;100998.00;2615937;31;20039;-55
2022/10/23 08:28:41;;;;;;;6.35;3.78;;;;;;;15.73;100.00;100994.44;2616570;36;20435;-55
2022/10/23 08:31:11;;;;;;;7.93;4.20;;;;;;;15.69;100.00;100993.06;2616021;36;20049;-57
2022/10/23 08:33:39;;;;;;;6.82;4.05;;;;;;;15.66;100.00;100996.09;2615140;36;20066;-57
2022/10/23 08:36:22;;;;;;;9.93;4.13;;;;;;;15.72;100.00;100992.75;2616355;31;20027;-57
2022/10/23 08:38:52;;;;;;;13.20;4.57;;;;;;;15.84;100.00;100987.88;2615252;36;20061;-58
2022/10/23 08:41:26;;;;;;;10.13;3.83;;;;;;;15.80;100.00;100996.50;2615832;36;20061;-54
2022/10/23 08:44:03;;;;;;;7.60;3.95;;;;;;;15.85;100.00;100988.72;2615868;36;20034;-57
2022/10/23 08:46:34;;;;;;;7.32;3.60;;;;;;;15.86;100.00;100980.41;2615083;36;20034;-57
2022/10/23 08:49:19;;;;;;;10.10;5.63;;;;;;;15.95;100.00;100981.28;2613077;36;20038;-58
2022/10/23 08:51:53;;;;;;;8.07;3.95;;;;;;;15.93;100.00;100972.47;2614722;36;20037;-56
2022/10/23 08:54:27;;;;;;;10.07;4.00;;;;;;;15.83;100.00;100971.78;2614317;34;21844;-57
2022/10/23 08:57:01;;;;;;;7.32;3.63;;;;;;;15.83;100.00;100969.06;2609759;36;20938;-59
2022/10/23 08:59:33;;;;;;;6.78;4.10;;;;;;;15.99;100.00;100952.78;2612088;36;20034;-55
2022/10/23 09:02:05;;;;;;;8.98;3.92;;;;;;;16.04;100.00;100953.09;2613628;36;20044;-57
2022/10/23 09:04:34;;;;;;;8.27;4.45;;;;;;;15.89;100.00;100941.22;2613508;36;20053;-57
2022/10/23 09:07:14;;;;;;;7.00;3.83;;;;;;;16.08;100.00;100929.19;2613629;36;20041;-57
2022/10/23 09:09:56;;;;;;;11.35;4.15;;;;;;;16.14;100.00;100927.66;2613439;36;20031;-56
2022/10/23 09:12:27;;;;;;;5.93;3.72;;;;;;;16.27;100.00;100927.97;2591673;36;20045;-57
2022/10/23 09:15:10;;;;;;;9.07;3.70;;;;;;;16.11;100.00;100921.53;2611427;36;20054;-58
2022/10/23 09:17:40;;;;;;;7.32;3.45;;;;;;;16.39;100.00;100921.16;2613737;36;20103;-57
2022/10/23 09:20:16;;;;;;;7.28;3.33;;;;;;;16.23;100.00;100913.03;2615114;36;20145;-58
2022/10/23 09:22:48;;;;;;;8.13;3.42;;;;;;;16.11;100.00;100918.81;2615580;36;20030;-58
2022/10/23 09:25:24;;;;;;;7.47;3.53;;;;;;;16.35;100.00;100914.38;2614710;36;20030;-58
2022/10/23 09:27:54;;;;;;;7.32;4.30;;;;;;;16.37;100.00;100909.63;2615288;36;20034;-58
2022/10/23 09:30:34;;;;;;;6.50;3.40;;;;;;;16.37;100.00;100901.47;2615058;36;20038;-57
2022/10/23 09:33:14;;;;;;;10.73;4.32;;;;;;;16.46;100.00;100902.31;2615183;36;20420;-58
2022/10/23 09:35:54;;;;;;;6.88;3.47;;;;;;;16.63;100.00;100900.38;2615558;36;20587;-58
2022/10/23 09:38:34;;;;;;;5.82;3.15;;;;;;;16.75;100.00;100898.13;2615620;36;20027;-58
2022/10/23 09:41:07;;;;;;;7.28;3.33;;;;;;;16.67;100.00;100890.84;2614458;31;20547;-58
2022/10/23 09:43:36;;;;;;;7.75;3.40;;;;;;;16.67;100.00;100896.28;2615456;36;20030;-58
2022/10/23 09:46:08;;;;;;;8.25;3.78;;;;;;;16.78;100.00;100898.63;2613245;36;20042;-57
2022/10/23 09:48:37;;;;;;;8.68;3.65;;;;;;;16.86;100.00;100894.16;2614292;36;20571;-58
2022/10/23 09:51:06;;;;;;;;;;;;;;;16.89;100.00;100888.44;2612173;36;20038;-57
2022/10/23 09:53:40;;;;;;;7.93;3.65;;;;;;;16.79;100.00;100884.00;2612268;31;19970;-59
2022/10/23 09:56:27;;;;;;;12.35;4.22;;;;;;;16.72;100.00;100883.00;2613852;36;20042;-58
2022/10/23 09:58:58;;;;;;;8.20;3.50;;;;;;;16.57;100.00;100884.78;2615086;36;20031;-59
2022/10/23 10:01:29;;;;;;;9.40;3.92;;;;;;;16.54;100.00;100885.97;2611758;31;20031;-58
2022/10/23 10:03:57;;;;;;;9.48;4.03;;;;;;;16.50;100.00;100884.63;2613061;36;20547;-58
2022/10/23 10:06:27;;;;;;;10.65;3.45;;;;;;;16.48;100.00;100874.97;2615586;36;20039;-58
2022/10/23 10:09:01;;;;;;;5.97;3.40;;;;;;;16.66;100.00;100875.56;2613549;36;20050;-58
2022/10/23 10:11:37;;;;;;;9.85;3.35;;;;;;;16.53;100.00;100883.44;2612095;31;20061;-59
2022/10/23 10:14:56;;;;;;;6.07;3.22;;;;;;;16.50;100.00;100875.63;2609930;36;20434;-58
2022/10/23 10:17:37;;;;;;;7.72;3.72;;;;;;;16.46;100.00;100861.56;2611184;36;20039;-59
2022/10/23 10:20:23;;;;;;;13.10;4.80;;;;;;;16.41;100.00;100856.63;2612518;31;20038;-57
2022/10/23 10:22:56;;;;;;;7.18;3.75;;;;;;;16.36;100.00;100859.03;2614801;36;20030;-60
2022/10/23 10:25:33;;;;;;;11.80;3.33;;;;;;;16.45;100.00;100849.81;2616535;36;20033;-59
2022/10/23 10:28:18;;;;;;;6.60;3.58;;;;;;;16.45;100.00;100855.25;2616281;36;20041;-57
2022/10/23 10:30:55;;;;;;;10.80;3.42;;;;;;;16.73;100.00;100856.69;2614096;36;20033;-59
2022/10/23 10:33:30;;;;;;;8.60;3.05;;;;;;;16.74;100.00;100858.38;2606730;31;20065;-58
2022/10/23 10:36:03;;;;;;;7.57;3.58;;;;;;;16.60;100.00;100863.53;2612325;36;20031;-59
2022/10/23 10:38:44;;;;;;;6.55;3.55;;;;;;;16.88;100.00;100860.38;2614430;36;21684;-58
2022/10/23 10:41:29;;;;;;;7.65;3.05;;;;;;;16.65;100.00;100843.97;2614919;36;20061;-59
2022/10/23 10:44:10;;;;;;;7.53;3.13;;;;;;;16.97;100.00;100836.72;2617147;31;20472;-59
2022/10/23 10:46:45;;;;;;;9.57;3.30;;;;;;;17.04;100.00;100824.09;2616354;36;20046;-58
2022/10/23 10:49:21;;;;;;;6.15;2.70;;;;;;;17.01;100.00;100816.31;2616904;36;20027;-59
2022/10/23 10:51:59;;;;;;;6.22;2.95;;;;;;;16.87;100.00;100814.31;2615197;36;20030;-58
2022/10/23 10:54:43;;;;;;;7.60;3.20;;;;;;;17.03;100.00;100810.69;2612355;36;20045;-58
2022/10/23 10:57:25;;;;;;;9.55;3.03;;;;;;;16.91;100.00;100800.22;2612632;36;20563;-58
2022/10/23 10:59:57;;;;;;;8.73;2.92;;;;;;;16.95;100.00;100790.69;2612567;36;20038;-59
2022/10/23 11:02:29;;;;;;;5.90;2.75;;;;;;;17.07;100.00;100782.94;2612309;36;20466;-58
2022/10/23 11:05:07;;;;;;;5.03;2.55;;;;;;;16.90;100.00;100773.22;2610462;36;20042;-59
2022/10/23 11:07:41;;;;;;;5.68;2.85;;;;;;;17.09;100.00;100761.88;2613573;36;20226;-58
2022/10/23 11:10:17;;;;;;;5.15;2.75;;;;;;;17.17;100.00;100756.34;2613565;36;20027;-58
2022/10/23 11:12:50;;;;;;;7.30;2.75;;;;;;;17.16;100.00;100754.66;2615085;36;20042;-59
2022/10/23 11:15:22;;;;;;;7.45;2.42;;;;;;;17.16;100.00;100749.22;2615267;36;20067;-59
2022/10/23 11:17:55;;;;;;;6.40;2.58;;;;;;;17.12;100.00;100741.63;2615475;36;20039;-59
2022/10/23 11:20:37;;;;;;;8.93;3.13;;;;;;;17.19;100.00;100739.84;2615310;31;20063;-59
2022/10/23 11:23:17;;;;;;;5.85;2.45;;;;;;;17.16;100.00;100740.22;2615616;36;20512;-58
2022/10/23 11:26:00;;;;;;;5.90;2.67;;;;;;;17.28;100.00;100737.91;2615555;36;20022;-58
2022/10/23 11:28:44;;;;;;;7.90;3.85;;;;;;;17.30;100.00;100719.56;2614919;36;20042;-57
2022/10/23 11:31:26;;;;;;;6.25;2.40;;;;;;;17.17;100.00;100721.00;2615074;36;20057;-58
2022/10/23 11:34:34;;;;;;;6.10;2.92;;;;;;;17.35;100.00;100717.13;2608343;36;20030;-59
2022/10/23 11:37:04;;;;;;;6.75;2.60;;;;;;;17.35;100.00;100708.94;2614131;36;20580;-57
2022/10/23 11:39:34;;;;;;;6.53;2.35;;;;;;;17.23;100.00;100710.44;2615334;36;20065;-57